sensor_id;sensor_type;location;lat;lon;timestamp;temperature;humidity
30520;DHT22;17300;50.374;8.006;2023-05-07T00:01:03;19.70;53.30
30520;DHT22;17300;50.374;8.006;2023-05-07T00:03:31;19.70;53.30
30520;DHT22;17300;50.374;8.006;2023-05-07T00:05:58;19.70;53.30
30520;DHT22;17300;50.374;8.006;2023-05-07T00:08:25;19.70;53.30
30520;DHT22;17300;50.374;8.006;2023-05-07T00:10:52;19.60;53.30
30520;DHT22;17300;50.374;8.006;2023-05-07T00:13:19;19.60;53.30
30520;DHT22;17300;50.374;8.006;2023-05-07T00:15:45;19.60;53.40
30520;DHT22;17300;50.374;8.006;2023-05-07T00:18:12;19.60;53.60
30520;DHT22;17300;50.374;8.006;2023-05-07T00:20:39;19.60;53.60
30520;DHT22;17300;50.374;8.006;2023-05-07T00:23:05;19.60;53.60
30520;DHT22;17300;50.374;8.006;2023-05-07T00:25:33;19.60;53.60
30520;DHT22;17300;50.374;8.006;2023-05-07T00:28:00;19.60;53.70
30520;DHT22;17300;50.374;8.006;2023-05-07T00:30:29;19.60;53.60
30520;DHT22;17300;50.374;8.006;2023-05-07T00:32:55;19.50;53.60
30520;DHT22;17300;50.374;8.006;2023-05-07T00:35:22;19.60;53.70
30520;DHT22;17300;50.374;8.006;2023-05-07T00:37:49;19.50;53.60
30520;DHT22;17300;50.374;8.006;2023-05-07T00:40:16;19.50;53.70
30520;DHT22;17300;50.374;8.006;2023-05-07T00:42:44;19.50;53.70
30520;DHT22;17300;50.374;8.006;2023-05-07T00:45:12;19.50;53.80
30520;DHT22;17300;50.374;8.006;2023-05-07T00:47:39;19.60;53.80
30520;DHT22;17300;50.374;8.006;2023-05-07T00:50:07;19.50;53.80
30520;DHT22;17300;50.374;8.006;2023-05-07T00:52:35;19.50;53.90
30520;DHT22;17300;50.374;8.006;2023-05-07T00:55:05;19.60;54.00
30520;DHT22;17300;50.374;8.006;2023-05-07T00:57:34;19.60;54.10
30520;DHT22;17300;50.374;8.006;2023-05-07T01:00:04;19.60;54.10
30520;DHT22;17300;50.374;8.006;2023-05-07T01:02:31;19.50;54.10
30520;DHT22;17300;50.374;8.006;2023-05-07T01:04:58;19.50;54.00
30520;DHT22;17300;50.374;8.006;2023-05-07T01:07:27;19.60;54.10
30520;DHT22;17300;50.374;8.006;2023-05-07T01:09:54;19.60;54.20
30520;DHT22;17300;50.374;8.006;2023-05-07T01:12:21;19.60;54.20
30520;DHT22;17300;50.374;8.006;2023-05-07T01:14:48;19.60;54.20
30520;DHT22;17300;50.374;8.006;2023-05-07T01:17:17;19.50;54.10
30520;DHT22;17300;50.374;8.006;2023-05-07T01:19:44;19.50;54.10
30520;DHT22;17300;50.374;8.006;2023-05-07T01:22:10;19.50;54.10
30520;DHT22;17300;50.374;8.006;2023-05-07T01:24:39;19.60;54.30
30520;DHT22;17300;50.374;8.006;2023-05-07T01:27:05;19.50;54.40
30520;DHT22;17300;50.374;8.006;2023-05-07T01:29:32;19.50;54.40
30520;DHT22;17300;50.374;8.006;2023-05-07T01:32:00;19.50;54.40
30520;DHT22;17300;50.374;8.006;2023-05-07T01:34:28;19.50;54.50
30520;DHT22;17300;50.374;8.006;2023-05-07T01:36:56;19.50;54.50
30520;DHT22;17300;50.374;8.006;2023-05-07T01:39:26;19.50;54.40
30520;DHT22;17300;50.374;8.006;2023-05-07T01:41:55;19.50;54.50
30520;DHT22;17300;50.374;8.006;2023-05-07T01:44:23;19.50;54.70
30520;DHT22;17300;50.374;8.006;2023-05-07T01:46:50;19.50;54.70
30520;DHT22;17300;50.374;8.006;2023-05-07T01:49:17;19.60;54.70
30520;DHT22;17300;50.374;8.006;2023-05-07T01:51:44;19.50;54.60
30520;DHT22;17300;50.374;8.006;2023-05-07T01:54:10;19.50;54.70
30520;DHT22;17300;50.374;8.006;2023-05-07T01:56:37;19.50;54.70
30520;DHT22;17300;50.374;8.006;2023-05-07T01:59:05;19.50;54.70
30520;DHT22;17300;50.374;8.006;2023-05-07T02:01:32;19.50;54.80
30520;DHT22;17300;50.374;8.006;2023-05-07T02:03:58;19.50;54.80
30520;DHT22;17300;50.374;8.006;2023-05-07T02:06:25;19.50;54.80
30520;DHT22;17300;50.374;8.006;2023-05-07T02:08:52;19.50;54.80
30520;DHT22;17300;50.374;8.006;2023-05-07T02:11:18;19.50;54.80
30520;DHT22;17300;50.374;8.006;2023-05-07T02:13:45;19.40;54.80
30520;DHT22;17300;50.374;8.006;2023-05-07T02:16:13;19.40;54.90
30520;DHT22;17300;50.374;8.006;2023-05-07T02:18:40;19.40;55.00
30520;DHT22;17300;50.374;8.006;2023-05-07T02:21:07;19.40;54.90
30520;DHT22;17300;50.374;8.006;2023-05-07T02:23:33;19.40;54.90
30520;DHT22;17300;50.374;8.006;2023-05-07T02:26:00;19.40;55.00
30520;DHT22;17300;50.374;8.006;2023-05-07T02:28:27;19.40;55.00
30520;DHT22;17300;50.374;8.006;2023-05-07T02:30:53;19.40;55.00
30520;DHT22;17300;50.374;8.006;2023-05-07T02:33:21;19.30;55.00
30520;DHT22;17300;50.374;8.006;2023-05-07T02:35:48;19.40;55.10
30520;DHT22;17300;50.374;8.006;2023-05-07T02:38:15;19.30;55.00
30520;DHT22;17300;50.374;8.006;2023-05-07T02:40:41;19.30;55.10
30520;DHT22;17300;50.374;8.006;2023-05-07T02:43:09;19.30;55.10
30520;DHT22;17300;50.374;8.006;2023-05-07T02:45:35;19.30;55.10
30520;DHT22;17300;50.374;8.006;2023-05-07T02:48:03;19.30;55.20
30520;DHT22;17300;50.374;8.006;2023-05-07T02:50:32;19.20;55.20
30520;DHT22;17300;50.374;8.006;2023-05-07T02:52:58;19.20;55.30
30520;DHT22;17300;50.374;8.006;2023-05-07T02:55:25;19.20;55.30
30520;DHT22;17300;50.374;8.006;2023-05-07T02:57:52;19.20;55.40
30520;DHT22;17300;50.374;8.006;2023-05-07T03:00:20;19.20;55.50
30520;DHT22;17300;50.374;8.006;2023-05-07T03:02:46;19.10;55.50
30520;DHT22;17300;50.374;8.006;2023-05-07T03:05:13;19.10;55.50
30520;DHT22;17300;50.374;8.006;2023-05-07T03:07:41;19.10;55.50
30520;DHT22;17300;50.374;8.006;2023-05-07T03:10:10;19.10;55.50
30520;DHT22;17300;50.374;8.006;2023-05-07T03:12:37;19.10;55.50
30520;DHT22;17300;50.374;8.006;2023-05-07T03:15:05;19.20;55.60
30520;DHT22;17300;50.374;8.006;2023-05-07T03:17:31;19.10;55.50
30520;DHT22;17300;50.374;8.006;2023-05-07T03:19:58;19.10;55.50
30520;DHT22;17300;50.374;8.006;2023-05-07T03:22:25;19.10;55.50
30520;DHT22;17300;50.374;8.006;2023-05-07T03:24:53;19.00;55.40
30520;DHT22;17300;50.374;8.006;2023-05-07T03:27:20;19.00;55.40
30520;DHT22;17300;50.374;8.006;2023-05-07T03:29:46;19.00;55.50
30520;DHT22;17300;50.374;8.006;2023-05-07T03:32:13;19.00;55.50
30520;DHT22;17300;50.374;8.006;2023-05-07T03:34:40;19.00;55.60
30520;DHT22;17300;50.374;8.006;2023-05-07T03:37:06;19.00;55.70
30520;DHT22;17300;50.374;8.006;2023-05-07T03:39:33;19.00;55.80
30520;DHT22;17300;50.374;8.006;2023-05-07T03:42:02;18.90;55.70
30520;DHT22;17300;50.374;8.006;2023-05-07T03:44:28;18.90;55.80
30520;DHT22;17300;50.374;8.006;2023-05-07T03:46:55;18.90;55.80
30520;DHT22;17300;50.374;8.006;2023-05-07T03:49:22;18.90;55.90
30520;DHT22;17300;50.374;8.006;2023-05-07T03:51:49;18.90;56.00
30520;DHT22;17300;50.374;8.006;2023-05-07T03:54:15;18.90;56.00
30520;DHT22;17300;50.374;8.006;2023-05-07T03:56:42;18.90;56.00
30520;DHT22;17300;50.374;8.006;2023-05-07T03:59:10;18.90;56.00
30520;DHT22;17300;50.374;8.006;2023-05-07T04:01:36;18.80;56.00
30520;DHT22;17300;50.374;8.006;2023-05-07T04:04:03;18.80;55.90
30520;DHT22;17300;50.374;8.006;2023-05-07T04:06:30;18.80;56.00
30520;DHT22;17300;50.374;8.006;2023-05-07T04:08:57;18.80;56.00
30520;DHT22;17300;50.374;8.006;2023-05-07T04:11:23;18.80;56.00
30520;DHT22;17300;50.374;8.006;2023-05-07T04:13:50;18.80;56.10
30520;DHT22;17300;50.374;8.006;2023-05-07T04:16:18;18.80;56.10
30520;DHT22;17300;50.374;8.006;2023-05-07T04:18:45;18.80;56.10
30520;DHT22;17300;50.374;8.006;2023-05-07T04:21:15;18.70;56.00
30520;DHT22;17300;50.374;8.006;2023-05-07T04:23:42;18.70;56.30
30520;DHT22;17300;50.374;8.006;2023-05-07T04:26:09;18.70;56.10
30520;DHT22;17300;50.374;8.006;2023-05-07T04:28:35;18.70;56.20
30520;DHT22;17300;50.374;8.006;2023-05-07T04:31:02;18.70;56.40
30520;DHT22;17300;50.374;8.006;2023-05-07T04:33:30;18.70;56.40
30520;DHT22;17300;50.374;8.006;2023-05-07T04:35:57;18.70;56.50
30520;DHT22;17300;50.374;8.006;2023-05-07T04:38:28;18.70;56.50
30520;DHT22;17300;50.374;8.006;2023-05-07T04:40:54;18.70;56.50
30520;DHT22;17300;50.374;8.006;2023-05-07T04:43:21;18.70;56.60
30520;DHT22;17300;50.374;8.006;2023-05-07T04:45:49;18.70;56.60
30520;DHT22;17300;50.374;8.006;2023-05-07T04:48:15;18.70;56.70
30520;DHT22;17300;50.374;8.006;2023-05-07T04:50:47;18.80;56.70
30520;DHT22;17300;50.374;8.006;2023-05-07T04:53:14;18.80;56.80
30520;DHT22;17300;50.374;8.006;2023-05-07T04:55:40;18.80;56.70
30520;DHT22;17300;50.374;8.006;2023-05-07T04:58:07;18.80;56.80
30520;DHT22;17300;50.374;8.006;2023-05-07T05:00:34;18.90;56.90
30520;DHT22;17300;50.374;8.006;2023-05-07T05:03:01;18.90;57.00
30520;DHT22;17300;50.374;8.006;2023-05-07T05:05:27;18.90;57.00
30520;DHT22;17300;50.374;8.006;2023-05-07T05:07:55;19.00;57.10
30520;DHT22;17300;50.374;8.006;2023-05-07T05:10:22;19.00;57.70
30520;DHT22;17300;50.374;8.006;2023-05-07T05:12:49;19.10;57.10
30520;DHT22;17300;50.374;8.006;2023-05-07T05:15:15;19.10;57.10
30520;DHT22;17300;50.374;8.006;2023-05-07T05:17:42;19.10;57.00
30520;DHT22;17300;50.374;8.006;2023-05-07T05:20:09;19.20;57.10
30520;DHT22;17300;50.374;8.006;2023-05-07T05:22:37;19.30;57.20
30520;DHT22;17300;50.374;8.006;2023-05-07T05:25:05;19.30;57.10
30520;DHT22;17300;50.374;8.006;2023-05-07T05:27:32;19.40;57.30
30520;DHT22;17300;50.374;8.006;2023-05-07T05:29:58;19.30;57.10
30520;DHT22;17300;50.374;8.006;2023-05-07T05:32:25;19.40;57.20
30520;DHT22;17300;50.374;8.006;2023-05-07T05:34:52;19.40;57.20
30520;DHT22;17300;50.374;8.006;2023-05-07T05:37:18;19.50;57.20
30520;DHT22;17300;50.374;8.006;2023-05-07T05:39:45;19.60;57.30
30520;DHT22;17300;50.374;8.006;2023-05-07T05:42:13;19.70;57.40
30520;DHT22;17300;50.374;8.006;2023-05-07T05:44:40;19.70;57.20
30520;DHT22;17300;50.374;8.006;2023-05-07T05:47:06;19.80;57.30
30520;DHT22;17300;50.374;8.006;2023-05-07T05:49:33;19.90;57.30
30520;DHT22;17300;50.374;8.006;2023-05-07T05:52:00;20.00;57.40
30520;DHT22;17300;50.374;8.006;2023-05-07T05:54:27;20.10;57.60
30520;DHT22;17300;50.374;8.006;2023-05-07T05:56:53;20.30;57.40
30520;DHT22;17300;50.374;8.006;2023-05-07T05:59:21;20.40;57.40
30520;DHT22;17300;50.374;8.006;2023-05-07T06:01:48;20.50;57.20
30520;DHT22;17300;50.374;8.006;2023-05-07T06:04:15;20.60;57.20
30520;DHT22;17300;50.374;8.006;2023-05-07T06:06:42;20.80;57.00
30520;DHT22;17300;50.374;8.006;2023-05-07T06:09:09;20.90;56.90
30520;DHT22;17300;50.374;8.006;2023-05-07T06:11:35;21.00;56.80
30520;DHT22;17300;50.374;8.006;2023-05-07T06:14:02;21.10;56.90
30520;DHT22;17300;50.374;8.006;2023-05-07T06:16:30;21.30;58.00
30520;DHT22;17300;50.374;8.006;2023-05-07T06:18:56;21.70;59.90
30520;DHT22;17300;50.374;8.006;2023-05-07T06:21:23;22.30;62.80
30520;DHT22;17300;50.374;8.006;2023-05-07T06:23:50;23.00;63.90
30520;DHT22;17300;50.374;8.006;2023-05-07T06:26:17;23.70;62.40
30520;DHT22;17300;50.374;8.006;2023-05-07T06:28:44;24.30;59.70
30520;DHT22;17300;50.374;8.006;2023-05-07T06:31:11;24.90;58.10
30520;DHT22;17300;50.374;8.006;2023-05-07T06:33:40;25.30;56.50
30520;DHT22;17300;50.374;8.006;2023-05-07T06:36:07;25.60;55.30
30520;DHT22;17300;50.374;8.006;2023-05-07T06:38:33;25.80;54.60
30520;DHT22;17300;50.374;8.006;2023-05-07T06:41:00;26.00;54.20
30520;DHT22;17300;50.374;8.006;2023-05-07T06:43:27;26.20;53.50
30520;DHT22;17300;50.374;8.006;2023-05-07T06:45:53;26.40;52.90
30520;DHT22;17300;50.374;8.006;2023-05-07T06:48:20;26.50;53.10
30520;DHT22;17300;50.374;8.006;2023-05-07T06:50:48;26.80;53.90
30520;DHT22;17300;50.374;8.006;2023-05-07T06:53:15;27.10;54.50
30520;DHT22;17300;50.374;8.006;2023-05-07T06:55:42;27.50;54.40
30520;DHT22;17300;50.374;8.006;2023-05-07T06:58:08;27.90;53.80
30520;DHT22;17300;50.374;8.006;2023-05-07T07:00:35;28.40;52.90
30520;DHT22;17300;50.374;8.006;2023-05-07T07:03:02;28.70;51.90
30520;DHT22;17300;50.374;8.006;2023-05-07T07:05:28;29.10;50.90
30520;DHT22;17300;50.374;8.006;2023-05-07T07:07:56;29.40;50.00
30520;DHT22;17300;50.374;8.006;2023-05-07T07:10:23;29.60;49.10
30520;DHT22;17300;50.374;8.006;2023-05-07T07:12:50;29.70;48.50
30520;DHT22;17300;50.374;8.006;2023-05-07T07:15:18;29.80;47.60
30520;DHT22;17300;50.374;8.006;2023-05-07T07:17:46;29.80;46.60
30520;DHT22;17300;50.374;8.006;2023-05-07T07:20:12;29.70;46.00
30520;DHT22;17300;50.374;8.006;2023-05-07T07:22:39;29.60;45.70
30520;DHT22;17300;50.374;8.006;2023-05-07T07:25:08;29.50;45.70
30520;DHT22;17300;50.374;8.006;2023-05-07T07:27:35;29.30;45.30
30520;DHT22;17300;50.374;8.006;2023-05-07T07:30:02;29.30;45.60
30520;DHT22;17300;50.374;8.006;2023-05-07T07:32:29;29.10;45.40
30520;DHT22;17300;50.374;8.006;2023-05-07T07:34:57;29.00;45.20
30520;DHT22;17300;50.374;8.006;2023-05-07T07:41:05;28.80;44.80
30520;DHT22;17300;50.374;8.006;2023-05-07T07:46:56;28.60;45.40
30520;DHT22;17300;50.374;8.006;2023-05-07T07:49:35;28.60;46.00
30520;DHT22;17300;50.374;8.006;2023-05-07T07:52:04;28.60;45.80
30520;DHT22;17300;50.374;8.006;2023-05-07T07:54:31;28.60;45.80
30520;DHT22;17300;50.374;8.006;2023-05-07T07:56:59;28.60;45.70
30520;DHT22;17300;50.374;8.006;2023-05-07T07:59:33;28.70;45.40
30520;DHT22;17300;50.374;8.006;2023-05-07T08:02:00;28.70;45.80
30520;DHT22;17300;50.374;8.006;2023-05-07T08:04:26;28.80;45.80
30520;DHT22;17300;50.374;8.006;2023-05-07T08:06:53;28.90;45.90
30520;DHT22;17300;50.374;8.006;2023-05-07T08:09:21;29.10;46.20
30520;DHT22;17300;50.374;8.006;2023-05-07T08:11:48;29.20;46.50
30520;DHT22;17300;50.374;8.006;2023-05-07T08:14:16;29.40;45.90
30520;DHT22;17300;50.374;8.006;2023-05-07T08:16:42;29.70;45.20
30520;DHT22;17300;50.374;8.006;2023-05-07T08:19:15;29.80;44.70
30520;DHT22;17300;50.374;8.006;2023-05-07T08:21:57;30.00;44.60
30520;DHT22;17300;50.374;8.006;2023-05-07T08:24:24;30.10;44.30
30520;DHT22;17300;50.374;8.006;2023-05-07T08:26:51;30.50;45.30
30520;DHT22;17300;50.374;8.006;2023-05-07T08:29:19;30.90;45.00
30520;DHT22;17300;50.374;8.006;2023-05-07T08:31:49;31.30;44.30
30520;DHT22;17300;50.374;8.006;2023-05-07T08:34:16;31.60;43.60
30520;DHT22;17300;50.374;8.006;2023-05-07T08:36:43;31.90;42.50
30520;DHT22;17300;50.374;8.006;2023-05-07T08:39:12;32.10;41.70
30520;DHT22;17300;50.374;8.006;2023-05-07T08:41:40;32.30;41.10
30520;DHT22;17300;50.374;8.006;2023-05-07T08:44:12;32.40;40.80
30520;DHT22;17300;50.374;8.006;2023-05-07T08:46:56;32.60;40.80
30520;DHT22;17300;50.374;8.006;2023-05-07T08:49:23;32.80;40.60
30520;DHT22;17300;50.374;8.006;2023-05-07T08:51:52;33.10;42.10
30520;DHT22;17300;50.374;8.006;2023-05-07T08:54:22;33.60;42.50
30520;DHT22;17300;50.374;8.006;2023-05-07T08:56:48;34.10;42.80
30520;DHT22;17300;50.374;8.006;2023-05-07T08:59:15;34.90;42.40
30520;DHT22;17300;50.374;8.006;2023-05-07T09:01:43;35.70;42.30
30520;DHT22;17300;50.374;8.006;2023-05-07T09:04:10;36.50;40.90
30520;DHT22;17300;50.374;8.006;2023-05-07T09:06:38;37.20;40.00
30520;DHT22;17300;50.374;8.006;2023-05-07T09:09:07;37.80;38.50
30520;DHT22;17300;50.374;8.006;2023-05-07T09:11:34;38.30;37.00
30520;DHT22;17300;50.374;8.006;2023-05-07T09:14:01;38.50;35.50
30520;DHT22;17300;50.374;8.006;2023-05-07T09:16:29;38.50;34.10
30520;DHT22;17300;50.374;8.006;2023-05-07T09:18:58;38.40;33.50
30520;DHT22;17300;50.374;8.006;2023-05-07T09:21:25;38.30;32.90
30520;DHT22;17300;50.374;8.006;2023-05-07T09:23:53;38.00;32.90
30520;DHT22;17300;50.374;8.006;2023-05-07T09:26:21;37.90;33.30
30520;DHT22;17300;50.374;8.006;2023-05-07T09:28:48;37.90;34.00
30520;DHT22;17300;50.374;8.006;2023-05-07T09:31:14;37.90;34.30
30520;DHT22;17300;50.374;8.006;2023-05-07T09:33:41;38.20;34.50
30520;DHT22;17300;50.374;8.006;2023-05-07T09:36:10;38.50;34.50
30520;DHT22;17300;50.374;8.006;2023-05-07T09:38:37;38.90;34.80
30520;DHT22;17300;50.374;8.006;2023-05-07T09:41:05;39.40;34.60
30520;DHT22;17300;50.374;8.006;2023-05-07T09:43:33;40.00;34.40
30520;DHT22;17300;50.374;8.006;2023-05-07T09:46:03;40.50;34.00
30520;DHT22;17300;50.374;8.006;2023-05-07T09:48:30;41.20;32.90
30520;DHT22;17300;50.374;8.006;2023-05-07T09:51:01;41.60;31.90
30520;DHT22;17300;50.374;8.006;2023-05-07T09:53:30;42.10;30.00
30520;DHT22;17300;50.374;8.006;2023-05-07T09:55:58;42.30;29.40
30520;DHT22;17300;50.374;8.006;2023-05-07T09:58:26;42.50;29.40
30520;DHT22;17300;50.374;8.006;2023-05-07T10:00:52;42.60;29.00
30520;DHT22;17300;50.374;8.006;2023-05-07T10:03:20;42.80;29.10
30520;DHT22;17300;50.374;8.006;2023-05-07T10:05:49;43.00;28.80
30520;DHT22;17300;50.374;8.006;2023-05-07T10:08:43;43.10;28.70
30520;DHT22;17300;50.374;8.006;2023-05-07T10:11:33;43.20;28.60
30520;DHT22;17300;50.374;8.006;2023-05-07T10:14:16;43.40;27.80
30520;DHT22;17300;50.374;8.006;2023-05-07T10:16:43;43.40;27.90
30520;DHT22;17300;50.374;8.006;2023-05-07T10:19:10;43.40;27.90
30520;DHT22;17300;50.374;8.006;2023-05-07T10:21:39;43.50;28.00
30520;DHT22;17300;50.374;8.006;2023-05-07T10:24:10;43.60;28.20
30520;DHT22;17300;50.374;8.006;2023-05-07T10:26:40;43.80;28.30
30520;DHT22;17300;50.374;8.006;2023-05-07T10:29:14;44.10;28.40
30520;DHT22;17300;50.374;8.006;2023-05-07T10:31:50;44.50;28.10
30520;DHT22;17300;50.374;8.006;2023-05-07T10:34:21;44.80;26.90
30520;DHT22;17300;50.374;8.006;2023-05-07T10:36:49;45.00;26.70
30520;DHT22;17300;50.374;8.006;2023-05-07T10:39:19;45.20;27.00
30520;DHT22;17300;50.374;8.006;2023-05-07T10:41:46;45.30;27.20
30520;DHT22;17300;50.374;8.006;2023-05-07T10:44:25;45.40;26.90
30520;DHT22;17300;50.374;8.006;2023-05-07T10:47:04;45.60;26.30
30520;DHT22;17300;50.374;8.006;2023-05-07T10:49:31;45.70;25.80
30520;DHT22;17300;50.374;8.006;2023-05-07T10:52:12;45.80;26.40
30520;DHT22;17300;50.374;8.006;2023-05-07T10:54:41;45.90;25.80
30520;DHT22;17300;50.374;8.006;2023-05-07T10:57:32;45.80;25.10
30520;DHT22;17300;50.374;8.006;2023-05-07T10:59:59;45.60;25.20
30520;DHT22;17300;50.374;8.006;2023-05-07T11:03:04;45.30;24.90
30520;DHT22;17300;50.374;8.006;2023-05-07T11:05:33;44.90;25.00
30520;DHT22;17300;50.374;8.006;2023-05-07T11:08:01;44.40;24.40
30520;DHT22;17300;50.374;8.006;2023-05-07T11:10:50;43.90;24.90
30520;DHT22;17300;50.374;8.006;2023-05-07T11:13:18;43.20;25.20
30520;DHT22;17300;50.374;8.006;2023-05-07T11:16:05;42.70;25.10
30520;DHT22;17300;50.374;8.006;2023-05-07T11:18:47;42.00;25.30
30520;DHT22;17300;50.374;8.006;2023-05-07T11:21:31;41.50;25.10
30520;DHT22;17300;50.374;8.006;2023-05-07T11:23:59;40.80;25.90
30520;DHT22;17300;50.374;8.006;2023-05-07T11:26:29;40.40;25.60
30520;DHT22;17300;50.374;8.006;2023-05-07T11:28:56;39.80;25.80
30520;DHT22;17300;50.374;8.006;2023-05-07T11:31:26;39.30;25.90
30520;DHT22;17300;50.374;8.006;2023-05-07T11:33:55;38.80;26.10
30520;DHT22;17300;50.374;8.006;2023-05-07T11:36:23;38.30;26.90
30520;DHT22;17300;50.374;8.006;2023-05-07T11:38:50;37.80;27.40
30520;DHT22;17300;50.374;8.006;2023-05-07T11:41:17;37.50;27.50
30520;DHT22;17300;50.374;8.006;2023-05-07T11:43:59;37.20;28.20
30520;DHT22;17300;50.374;8.006;2023-05-07T11:46:27;37.00;28.80
30520;DHT22;17300;50.374;8.006;2023-05-07T11:48:55;36.80;28.50
30520;DHT22;17300;50.374;8.006;2023-05-07T11:51:23;36.70;28.60
30520;DHT22;17300;50.374;8.006;2023-05-07T11:53:51;36.60;28.90
30520;DHT22;17300;50.374;8.006;2023-05-07T11:56:18;36.60;28.80
30520;DHT22;17300;50.374;8.006;2023-05-07T11:58:47;36.50;29.10
30520;DHT22;17300;50.374;8.006;2023-05-07T12:01:16;36.40;28.70
30520;DHT22;17300;50.374;8.006;2023-05-07T12:03:44;36.20;28.60
30520;DHT22;17300;50.374;8.006;2023-05-07T12:06:12;36.20;28.60
30520;DHT22;17300;50.374;8.006;2023-05-07T12:08:40;35.90;28.40
30520;DHT22;17300;50.374;8.006;2023-05-07T12:11:08;35.80;28.30
30520;DHT22;17300;50.374;8.006;2023-05-07T12:13:36;35.70;28.40
30520;DHT22;17300;50.374;8.006;2023-05-07T12:16:05;35.50;29.00
30520;DHT22;17300;50.374;8.006;2023-05-07T12:18:34;35.20;28.80
30520;DHT22;17300;50.374;8.006;2023-05-07T12:21:01;35.10;29.10
30520;DHT22;17300;50.374;8.006;2023-05-07T12:23:29;34.80;28.90
30520;DHT22;17300;50.374;8.006;2023-05-07T12:25:56;34.60;28.80
30520;DHT22;17300;50.374;8.006;2023-05-07T12:28:23;34.40;29.00
30520;DHT22;17300;50.374;8.006;2023-05-07T12:30:50;34.10;29.00
30520;DHT22;17300;50.374;8.006;2023-05-07T12:33:23;33.80;29.40
30520;DHT22;17300;50.374;8.006;2023-05-07T12:35:53;33.60;30.00
30520;DHT22;17300;50.374;8.006;2023-05-07T12:38:20;33.30;29.80
30520;DHT22;17300;50.374;8.006;2023-05-07T12:40:48;33.10;30.00
30520;DHT22;17300;50.374;8.006;2023-05-07T12:43:16;33.00;30.70
30520;DHT22;17300;50.374;8.006;2023-05-07T12:45:44;32.80;30.60
30520;DHT22;17300;50.374;8.006;2023-05-07T12:48:12;32.80;31.10
30520;DHT22;17300;50.374;8.006;2023-05-07T12:50:39;32.70;31.50
30520;DHT22;17300;50.374;8.006;2023-05-07T12:53:07;32.70;32.10
30520;DHT22;17300;50.374;8.006;2023-05-07T12:55:40;32.70;32.50
30520;DHT22;17300;50.374;8.006;2023-05-07T12:58:07;32.80;32.90
30520;DHT22;17300;50.374;8.006;2023-05-07T13:00:36;32.70;32.10
30520;DHT22;17300;50.374;8.006;2023-05-07T13:03:04;32.80;32.00
30520;DHT22;17300;50.374;8.006;2023-05-07T13:05:31;32.90;32.00
30520;DHT22;17300;50.374;8.006;2023-05-07T13:07:58;32.90;31.60
30520;DHT22;17300;50.374;8.006;2023-05-07T13:10:27;32.80;31.80
30520;DHT22;17300;50.374;8.006;2023-05-07T13:12:54;32.80;32.20
30520;DHT22;17300;50.374;8.006;2023-05-07T13:15:21;32.70;32.00
30520;DHT22;17300;50.374;8.006;2023-05-07T13:17:48;32.60;32.20
30520;DHT22;17300;50.374;8.006;2023-05-07T13:20:15;32.60;31.90
30520;DHT22;17300;50.374;8.006;2023-05-07T13:22:42;32.50;32.20
30520;DHT22;17300;50.374;8.006;2023-05-07T13:25:09;32.40;31.80
30520;DHT22;17300;50.374;8.006;2023-05-07T13:27:37;32.40;32.10
30520;DHT22;17300;50.374;8.006;2023-05-07T13:30:05;32.40;32.40
30520;DHT22;17300;50.374;8.006;2023-05-07T13:32:34;32.30;32.50
30520;DHT22;17300;50.374;8.006;2023-05-07T13:35:01;32.20;31.90
30520;DHT22;17300;50.374;8.006;2023-05-07T13:37:28;32.10;31.40
30520;DHT22;17300;50.374;8.006;2023-05-07T13:39:55;32.00;31.50
30520;DHT22;17300;50.374;8.006;2023-05-07T13:42:30;31.90;31.40
30520;DHT22;17300;50.374;8.006;2023-05-07T13:44:58;31.80;31.40
30520;DHT22;17300;50.374;8.006;2023-05-07T13:47:25;31.60;31.50
30520;DHT22;17300;50.374;8.006;2023-05-07T13:49:52;31.50;31.80
30520;DHT22;17300;50.374;8.006;2023-05-07T13:52:19;31.30;32.30
30520;DHT22;17300;50.374;8.006;2023-05-07T13:54:45;31.20;32.20
30520;DHT22;17300;50.374;8.006;2023-05-07T13:57:12;31.10;32.20
30520;DHT22;17300;50.374;8.006;2023-05-07T13:59:39;31.00;32.40
30520;DHT22;17300;50.374;8.006;2023-05-07T14:02:07;30.80;32.40
30520;DHT22;17300;50.374;8.006;2023-05-07T14:04:35;30.70;32.50
30520;DHT22;17300;50.374;8.006;2023-05-07T14:07:01;30.60;32.40
30520;DHT22;17300;50.374;8.006;2023-05-07T14:09:28;30.50;32.40
30520;DHT22;17300;50.374;8.006;2023-05-07T14:11:54;30.40;32.30
30520;DHT22;17300;50.374;8.006;2023-05-07T14:14:21;30.30;32.50
30520;DHT22;17300;50.374;8.006;2023-05-07T14:16:48;30.20;32.60
30520;DHT22;17300;50.374;8.006;2023-05-07T14:19:16;30.10;32.90
30520;DHT22;17300;50.374;8.006;2023-05-07T14:21:42;30.00;33.50
30520;DHT22;17300;50.374;8.006;2023-05-07T14:24:09;29.90;33.40
30520;DHT22;17300;50.374;8.006;2023-05-07T14:26:36;29.80;33.70
30520;DHT22;17300;50.374;8.006;2023-05-07T14:29:03;29.80;33.50
30520;DHT22;17300;50.374;8.006;2023-05-07T14:31:30;29.70;33.90
30520;DHT22;17300;50.374;8.006;2023-05-07T14:33:56;29.70;33.80
30520;DHT22;17300;50.374;8.006;2023-05-07T14:36:25;29.60;33.90
30520;DHT22;17300;50.374;8.006;2023-05-07T14:38:53;29.60;33.80
30520;DHT22;17300;50.374;8.006;2023-05-07T14:41:20;29.50;33.70
30520;DHT22;17300;50.374;8.006;2023-05-07T14:43:47;29.50;33.60
30520;DHT22;17300;50.374;8.006;2023-05-07T14:46:15;29.40;33.60
30520;DHT22;17300;50.374;8.006;2023-05-07T14:48:43;29.30;33.70
30520;DHT22;17300;50.374;8.006;2023-05-07T14:51:10;29.30;34.30
30520;DHT22;17300;50.374;8.006;2023-05-07T14:53:38;29.20;34.30
30520;DHT22;17300;50.374;8.006;2023-05-07T14:56:05;29.20;34.20
30520;DHT22;17300;50.374;8.006;2023-05-07T14:58:32;29.20;33.90
30520;DHT22;17300;50.374;8.006;2023-05-07T15:00:59;29.10;33.90
30520;DHT22;17300;50.374;8.006;2023-05-07T15:03:25;29.10;33.90
30520;DHT22;17300;50.374;8.006;2023-05-07T15:05:52;29.00;34.00
30520;DHT22;17300;50.374;8.006;2023-05-07T15:08:19;29.00;34.20
30520;DHT22;17300;50.374;8.006;2023-05-07T15:10:47;29.00;34.30
30520;DHT22;17300;50.374;8.006;2023-05-07T15:13:14;28.90;34.10
30520;DHT22;17300;50.374;8.006;2023-05-07T15:15:42;28.90;34.00
30520;DHT22;17300;50.374;8.006;2023-05-07T15:18:08;28.90;34.20
30520;DHT22;17300;50.374;8.006;2023-05-07T15:20:36;28.90;34.30
30520;DHT22;17300;50.374;8.006;2023-05-07T15:23:06;28.90;34.20
30520;DHT22;17300;50.374;8.006;2023-05-07T15:25:35;28.90;34.00
30520;DHT22;17300;50.374;8.006;2023-05-07T15:28:03;29.00;34.00
30520;DHT22;17300;50.374;8.006;2023-05-07T15:30:30;28.90;33.80
30520;DHT22;17300;50.374;8.006;2023-05-07T15:43:44;28.70;34.60
30520;DHT22;17300;50.374;8.006;2023-05-07T15:46:47;28.50;34.60
30520;DHT22;17300;50.374;8.006;2023-05-07T15:49:38;28.40;34.40
30520;DHT22;17300;50.374;8.006;2023-05-07T16:59:29;27.60;36.40
30520;DHT22;17300;50.374;8.006;2023-05-07T17:01:58;27.60;36.40